Time;durP1;ratioP1;P1;durP2;ratioP2;P2;SDS_P1;SDS_P2;PMS_P1;PMS_P2;Temp;Humidity;BMP_temperature;BMP_pressure;BME280_temperature;BME280_humidity;BME280_pressure;Samples;Min_cycle;Max_cycle;Signal;HPM_P1;HPM_P2
2023/10/24 00:01:16;;;;;;;;;15.67;11.00;;;;;12.83;87.92;100128.81;5037542;28;45336;-41
2023/10/24 00:03:41;;;;;;;;;20.00;12.33;;;;;12.84;87.97;100124.31;5036682;28;45355;-42
2023/10/24 00:06:07;;;;;;;;;16.33;13.67;;;;;12.90;87.92;100136.97;5037681;28;45344;-41
2023/10/24 00:08:32;;;;;;;;;13.00;11.67;;;;;12.89;88.35;100121.94;5036853;28;46635;-41
2023/10/24 00:11:02;;;;;;;;;10.33;10.33;;;;;12.90;87.91;100121.78;5037143;28;45302;-39
2023/10/24 00:13:28;;;;;;;;;14.00;12.33;;;;;12.91;87.74;100120.75;5037553;28;45435;-41
2023/10/24 00:15:54;;;;;;;;;18.00;12.67;;;;;12.93;87.99;100121.41;5037300;28;45443;-43
2023/10/24 00:18:19;;;;;;;;;12.33;9.67;;;;;12.93;87.54;100108.06;5037231;28;46156;-42
2023/10/24 00:20:44;;;;;;;;;18.33;11.33;;;;;12.96;87.88;100102.38;5036887;28;45377;-41
2023/10/24 00:23:10;;;;;;;;;16.00;12.00;;;;;12.95;87.93;100118.56;5037381;28;45360;-41
2023/10/24 00:25:35;;;;;;;;;13.00;10.00;;;;;12.93;88.08;100117.91;5037226;28;45506;-42
2023/10/24 00:28:00;;;;;;;;;15.00;12.00;;;;;12.90;88.35;100107.59;5019247;28;45982;-42
2023/10/24 00:30:26;;;;;;;;;14.33;11.33;;;;;12.92;88.04;100114.41;5036260;28;45351;-41
2023/10/24 00:32:51;;;;;;;;;15.67;13.00;;;;;12.94;88.27;100119.59;5036977;28;45397;-43
2023/10/24 00:35:17;;;;;;;;;19.00;14.00;;;;;12.91;88.20;100119.94;5037047;28;45475;-42
2023/10/24 00:37:43;;;;;;;;;20.67;16.00;;;;;12.77;88.43;100097.50;5036674;28;46054;-42
2023/10/24 00:40:09;;;;;;;;;12.33;12.33;;;;;12.84;88.36;100103.78;5036679;28;45479;-42
2023/10/24 00:42:35;;;;;;;;;13.67;12.33;;;;;12.89;88.59;100111.25;5036749;28;45403;-41
2023/10/24 00:45:00;;;;;;;;;15.67;13.67;;;;;12.85;88.27;100116.13;5036862;28;45470;-43
2023/10/24 00:47:26;;;;;;;;;14.67;10.33;;;;;12.85;89.22;100107.28;5036211;28;45296;-43
2023/10/24 00:49:52;;;;;;;;;15.00;11.67;;;;;12.80;89.22;100109.66;5036389;28;45407;-42
2023/10/24 00:52:18;;;;;;;;;13.00;11.33;;;;;12.77;89.45;100102.00;5036604;28;45329;-41
2023/10/24 00:54:44;;;;;;;;;13.67;12.00;;;;;12.78;89.65;100104.50;5036505;28;45411;-43
2023/10/24 00:57:12;;;;;;;;;14.67;13.33;;;;;12.79;89.52;100105.31;5036120;28;47035;-42
2023/10/24 00:59:39;;;;;;;;;14.00;14.00;;;;;12.76;89.43;100092.31;5036015;28;45373;-43
2023/10/24 01:02:06;;;;;;;;;12.33;12.00;;;;;12.79;89.67;100105.31;5036577;28;45213;-41
2023/10/24 01:04:33;;;;;;;;;13.00;9.33;;;;;12.78;89.56;100101.84;5036455;28;45526;-43
2023/10/24 01:06:59;;;;;;;;;18.00;13.00;;;;;12.74;90.24;100092.50;5036236;28;47254;-42
2023/10/24 01:09:25;;;;;;;;;17.00;14.00;;;;;12.76;90.15;100093.16;5036030;28;45348;-42
2023/10/24 01:11:51;;;;;;;;;9.00;8.00;;;;;12.75;91.27;100088.84;5036195;28;45286;-42
2023/10/24 01:14:16;;;;;;;;;18.33;10.00;;;;;12.67;90.75;100068.34;5036762;28;45379;-39
2023/10/24 01:16:46;;;;;;;;;12.33;8.00;;;;;12.78;90.46;100083.16;5035007;28;45374;-42
2023/10/24 01:19:12;;;;;;;;;13.00;11.00;;;;;12.78;90.48;100093.81;5036313;28;45470;-41
2023/10/24 01:21:45;;;;;;;;;14.00;11.00;;;;;12.80;90.45;100093.63;5036389;28;45446;-41
2023/10/24 01:24:15;;;;;;;;;10.67;9.33;;;;;12.74;90.60;100074.66;5036246;28;45270;-42
2023/10/24 01:26:41;;;;;;;;;13.67;12.00;;;;;12.84;90.67;100086.94;5035465;28;46353;-41
2023/10/24 01:29:08;;;;;;;;;15.00;11.00;;;;;12.87;90.84;100092.75;5035487;28;45449;-40
2023/10/24 01:31:33;;;;;;;;;16.33;13.67;;;;;12.77;90.89;100081.50;5036037;28;45344;-41
2023/10/24 01:33:58;;;;;;;;;15.33;13.33;;;;;12.87;90.44;100098.09;5036357;28;45402;-41
2023/10/24 01:36:24;;;;;;;;;14.33;13.67;;;;;12.89;90.30;100100.56;5036151;28;45379;-43
2023/10/24 01:38:49;;;;;;;;;14.00;12.67;;;;;12.88;91.18;100098.91;5035614;28;52070;-42
2023/10/24 01:41:14;;;;;;;;;11.67;9.67;;;;;12.87;91.55;100105.28;5036080;28;45312;-44
2023/10/24 01:43:40;;;;;;;;;14.00;13.00;;;;;12.90;90.91;100091.59;5036221;28;45341;-44
2023/10/24 01:46:05;;;;;;;;;16.00;14.67;;;;;12.94;90.94;100087.56;5036233;28;45605;-44
2023/10/24 01:48:30;;;;;;;;;16.67;10.00;;;;;12.94;91.25;100080.38;5036261;28;45253;-39
2023/10/24 01:50:55;;;;;;;;;19.33;13.67;;;;;12.95;91.08;100078.53;5036370;28;45324;-42
2023/10/24 01:53:22;;;;;;;;;12.67;12.67;;;;;12.94;91.06;100074.19;5036589;28;45290;-43
2023/10/24 01:55:47;;;;;;;;;17.67;14.00;;;;;12.95;91.48;100086.53;5035873;28;46229;-40
2023/10/24 01:58:13;;;;;;;;;11.67;10.67;;;;;12.87;91.32;100071.41;5036188;28;45466;-40
2023/10/24 02:00:38;;;;;;;;;15.00;14.00;;;;;12.97;91.26;100079.16;5036398;28;45502;-43
2023/10/24 02:03:03;;;;;;;;;15.33;12.00;;;;;13.00;91.51;100073.47;5036107;28;45362;-42
2023/10/24 02:05:29;;;;;;;;;16.00;14.00;;;;;13.01;91.63;100082.31;5035386;28;49356;-40
2023/10/24 02:07:54;;;;;;;;;17.33;17.33;;;;;13.00;91.29;100070.81;5035509;28;45488;-41
2023/10/24 02:10:19;;;;;;;;;15.00;13.67;;;;;13.06;91.35;100067.44;5035428;28;45462;-40
2023/10/24 02:12:46;;;;;;;;;14.00;14.00;;;;;13.09;90.99;100066.22;5035959;28;45447;-43
2023/10/24 02:15:11;;;;;;;;;13.67;12.33;;;;;13.09;91.37;100066.22;5035466;28;46271;-43
2023/10/24 02:17:36;;;;;;;;;13.00;13.00;;;;;13.08;90.94;100057.41;5035590;28;45301;-42
2023/10/24 02:20:02;;;;;;;;;14.33;14.00;;;;;13.10;91.21;100060.69;5035511;28;45435;-43
2023/10/24 02:22:27;;;;;;;;;12.67;11.00;;;;;13.11;91.58;100061.56;5035062;28;45233;-42
2023/10/24 02:24:53;;;;;;;;;18.67;13.00;;;;;13.14;91.19;100067.34;5034823;28;46303;-43
2023/10/24 02:27:18;;;;;;;;;16.67;12.00;;;;;13.10;91.37;100063.38;5036103;28;45356;-41
2023/10/24 02:29:43;;;;;;;;;16.00;14.33;;;;;13.10;91.30;100068.72;5038873;28;45292;-43
2023/10/24 02:32:09;;;;;;;;;15.67;13.33;;;;;13.13;91.66;100075.53;5039157;28;45341;-41
2023/10/24 02:34:34;;;;;;;;;13.67;11.00;;;;;13.15;91.84;100071.69;5038712;28;45265;-42
2023/10/24 02:36:59;;;;;;;;;17.00;14.00;;;;;13.19;91.91;100072.16;5039017;28;45231;-42
2023/10/24 02:39:25;;;;;;;;;17.00;12.33;;;;;13.17;91.90;100071.50;5038827;28;45348;-42
2023/10/24 02:41:51;;;;;;;;;14.00;9.67;;;;;13.08;91.78;100048.56;5038960;28;45415;-43
2023/10/24 02:44:16;;;;;;;;;15.00;13.33;;;;;13.18;92.27;100065.16;5038721;28;47537;-43
2023/10/24 02:46:41;;;;;;;;;13.67;12.00;;;;;13.17;91.90;100061.66;5038246;28;50161;-42
2023/10/24 02:49:07;;;;;;;;;18.00;11.00;;;;;13.16;92.33;100062.66;5038543;28;45313;-42
2023/10/24 02:51:32;;;;;;;;;17.33;13.33;;;;;13.12;92.04;100047.19;5038887;28;45416;-41
2023/10/24 02:53:57;;;;;;;;;10.67;9.67;;;;;13.20;92.43;100055.13;5038494;28;46569;-42
2023/10/24 02:56:23;;;;;;;;;14.67;9.67;;;;;13.12;91.61;100039.19;5038440;28;45438;-41
2023/10/24 02:58:49;;;;;;;;;13.33;10.00;;;;;13.25;91.94;100059.97;5038153;28;45426;-42
2023/10/24 03:01:14;;;;;;;;;15.67;13.00;;;;;13.26;91.44;100053.59;5038835;28;45391;-43
2023/10/24 03:03:40;;;;;;;;;14.00;9.33;;;;;13.26;91.54;100053.59;5038087;28;45930;-45
2023/10/24 03:06:15;;;;;;;;;4.00;3.67;;;;;13.17;91.66;100028.78;5038652;28;45417;-41
2023/10/24 03:08:41;;;;;;;;;9.33;8.00;;;;;13.28;91.58;100047.06;5038457;28;45320;-41
2023/10/24 03:11:06;;;;;;;;;12.67;10.67;;;;;13.32;91.74;100047.53;5038016;28;45507;-41
2023/10/24 03:13:31;;;;;;;;;12.67;10.00;;;;;13.29;91.59;100040.72;5038443;28;45524;-42
2023/10/24 03:16:02;;;;;;;;;13.33;7.00;;;;;13.30;91.70;100038.88;5038231;28;45511;-42
2023/10/24 03:18:28;;;;;;;;;9.67;9.67;;;;;13.35;91.78;100041.81;5038026;28;45379;-41
2023/10/24 03:20:53;;;;;;;;;13.33;10.33;;;;;13.37;91.48;100045.16;5038419;28;45422;-39
2023/10/24 03:23:18;;;;;;;;;13.00;12.00;;;;;13.37;91.25;100050.50;5038069;28;46491;-39
2023/10/24 03:25:44;;;;;;;;;12.67;11.00;;;;;13.34;91.38;100049.00;5038113;28;45498;-40
2023/10/24 03:28:09;;;;;;;;;14.00;10.33;;;;;13.39;91.80;100049.28;5038153;28;45496;-38
2023/10/24 03:30:34;;;;;;;;;15.33;11.33;;;;;13.39;91.73;100043.13;5038709;28;45863;-40
2023/10/24 03:33:00;;;;;;;;;12.00;10.00;;;;;13.41;91.76;100049.94;5037695;28;52304;-40
2023/10/24 03:35:25;;;;;;;;;10.33;9.67;;;;;13.43;91.83;100063.13;5037997;28;45399;-41
2023/10/24 03:37:50;;;;;;;;;17.67;10.00;;;;;13.42;91.91;100054.28;5038037;28;45336;-41
2023/10/24 03:40:16;;;;;;;;;9.33;8.33;;;;;13.44;91.83;100062.09;5036935;28;45374;-40
2023/10/24 03:42:41;;;;;;;;;12.33;7.67;;;;;13.43;92.41;100063.94;5037858;28;45903;-41
2023/10/24 03:45:07;;;;;;;;;9.33;9.00;;;;;13.44;92.35;100065.63;5019859;28;45396;-40
2023/10/24 03:47:32;;;;;;;;;14.67;9.00;;;;;13.43;92.60;100061.28;5038042;28;45417;-40
2023/10/24 03:49:57;;;;;;;;;16.67;12.00;;;;;13.43;91.88;100057.78;5037686;28;45420;-40
2023/10/24 03:52:23;;;;;;;;;12.33;9.67;;;;;13.42;92.36;100061.47;5037730;28;45896;-40
2023/10/24 03:54:48;;;;;;;;;13.00;9.33;;;;;13.39;92.34;100057.31;5036521;28;47842;-40
2023/10/24 03:57:13;;;;;;;;;8.67;7.33;;;;;13.38;92.56;100060.16;5037590;28;45474;-39
2023/10/24 03:59:39;;;;;;;;;14.33;8.33;;;;;13.38;92.72;100054.81;5037834;28;45361;-39
2023/10/24 04:02:04;;;;;;;;;11.00;8.67;;;;;13.38;92.42;100057.50;5037299;28;47170;-39
2023/10/24 04:04:30;;;;;;;;;7.33;7.33;;;;;13.36;93.22;100051.50;5037265;28;45365;-41
2023/10/24 04:06:55;;;;;;;;;8.33;8.33;;;;;13.26;93.17;100040.25;5037277;28;45380;-41
2023/10/24 04:09:20;;;;;;;;;9.67;9.00;;;;;13.36;92.99;100059.53;5037686;28;45524;-39
2023/10/24 04:11:46;;;;;;;;;10.00;8.00;;;;;13.33;93.18;100059.88;5036766;28;47153;-40
2023/10/24 04:14:11;;;;;;;;;10.33;7.00;;;;;13.28;93.06;100049.75;5037214;28;45321;-39
2023/10/24 04:16:36;;;;;;;;;12.67;12.67;;;;;13.30;93.12;100054.91;5037394;28;45581;-40
2023/10/24 04:19:02;;;;;;;;;9.00;7.33;;;;;13.31;93.60;100051.19;5037767;28;45527;-41
2023/10/24 04:21:27;;;;;;;;;13.00;10.00;;;;;13.31;93.21;100054.69;5037083;28;46052;-40
2023/10/24 04:23:53;;;;;;;;;9.00;8.00;;;;;13.31;93.36;100053.88;5036601;28;45442;-40
2023/10/24 04:26:18;;;;;;;;;9.33;7.00;;;;;13.33;93.69;100054.53;5037346;28;45822;-40
2023/10/24 04:28:44;;;;;;;;;6.33;6.00;;;;;13.32;93.33;100048.38;5037183;28;45463;-40
2023/10/24 04:31:09;;;;;;;;;9.00;8.33;;;;;13.34;94.12;100050.84;5036894;28;47307;-41
2023/10/24 04:33:34;;;;;;;;;7.00;6.67;;;;;13.33;94.25;100051.88;5037146;28;45349;-39
2023/10/24 04:36:00;;;;;;;;;8.33;8.00;;;;;13.30;93.26;100045.03;5037063;28;45191;-41
2023/10/24 04:38:25;;;;;;;;;7.33;7.33;;;;;13.22;93.67;100039.75;5037303;28;45256;-39
2023/10/24 04:40:51;;;;;;;;;4.00;4.00;;;;;13.34;94.11;100058.88;5036636;28;46305;-40
2023/10/24 04:43:17;;;;;;;;;6.33;6.33;;;;;13.37;93.16;100061.19;5036575;28;45360;-41
2023/10/24 04:45:43;;;;;;;;;6.33;6.33;;;;;13.37;94.03;100050.50;5036554;28;45383;-39
2023/10/24 04:48:08;;;;;;;;;9.33;7.67;;;;;13.36;93.39;100028.31;5037142;28;45372;-39
2023/10/24 04:50:38;;;;;;;;;5.67;4.67;;;;;13.40;93.62;100036.75;5036472;28;46076;-39
2023/10/24 04:53:04;;;;;;;;;7.67;5.00;;;;;13.40;93.39;100063.47;5036518;28;45542;-40
2023/10/24 04:55:30;;;;;;;;;7.00;7.00;;;;;13.39;93.52;100053.81;5036505;28;45424;-39
2023/10/24 04:57:55;;;;;;;;;7.67;6.33;;;;;13.44;93.55;100064.75;5018853;28;45403;-41
2023/10/24 05:00:21;;;;;;;;;7.33;7.00;;;;;13.45;93.50;100055.75;5036153;28;46189;-38
2023/10/24 05:02:46;;;;;;;;;7.33;7.00;;;;;13.44;93.84;100036.22;5036327;28;45399;-41
2023/10/24 05:05:12;;;;;;;;;9.00;7.33;;;;;13.30;93.94;100025.50;5036380;28;45411;-38
2023/10/24 05:07:37;;;;;;;;;9.33;7.33;;;;;13.43;93.49;100060.44;5018568;28;45470;-39
2023/10/24 05:10:04;;;;;;;;;9.33;6.00;;;;;13.43;93.76;100052.44;5035958;28;45355;-40
2023/10/24 05:12:29;;;;;;;;;7.33;7.00;;;;;13.38;93.55;100046.81;5036115;28;45302;-40
2023/10/24 05:14:54;;;;;;;;;10.00;8.33;;;;;13.48;93.65;100056.22;5036153;28;45233;-40
2023/10/24 05:17:20;;;;;;;;;11.00;7.00;;;;;13.48;93.98;100055.38;5036479;28;45309;-40
2023/10/24 05:19:45;;;;;;;;;9.33;8.00;;;;;13.46;93.53;100058.25;5035877;28;47168;-40
2023/10/24 05:22:11;;;;;;;;;7.67;7.67;;;;;13.45;93.70;100053.91;5036276;28;45174;-40
2023/10/24 05:24:38;;;;;;;;;9.00;4.00;;;;;13.45;93.79;100048.56;5036172;28;45501;-40
2023/10/24 05:27:04;;;;;;;;;9.33;7.67;;;;;13.44;93.94;100046.06;5036121;28;45261;-40
2023/10/24 05:29:33;;;;;;;;;11.33;8.00;;;;;13.47;93.80;100056.41;5035674;28;47054;-40
2023/10/24 05:31:59;;;;;;;;;10.00;8.00;;;;;13.43;93.72;100055.94;5035737;28;45327;-40
2023/10/24 05:34:28;;;;;;;;;8.33;8.00;;;;;13.49;94.09;100059.72;5036223;28;45261;-41
2023/10/24 05:36:54;;;;;;;;;8.67;7.33;;;;;13.48;93.80;100050.03;5036239;28;45558;-40
2023/10/24 05:39:20;;;;;;;;;6.00;5.33;;;;;13.09;93.50;99994.13;5035713;28;46920;-42
2023/10/24 05:41:46;;;;;;;;;9.67;8.67;;;;;13.42;93.80;100040.09;5035851;28;45263;-41
2023/10/24 05:44:11;;;;;;;;;7.33;7.33;;;;;13.41;93.70;100025.06;5036232;28;45336;-39
2023/10/24 05:46:36;;;;;;;;;7.67;7.00;;;;;13.40;94.21;100018.06;5036372;28;45482;-40
2023/10/24 05:49:02;;;;;;;;;9.00;6.33;;;;;13.41;93.88;100011.72;5035930;28;46191;-40
2023/10/24 05:51:29;;;;;;;;;7.33;7.33;;;;;13.44;93.99;100014.84;5035891;28;45364;-40
2023/10/24 05:53:54;;;;;;;;;13.00;7.33;;;;;13.43;93.85;100028.38;5035845;28;45380;-39
2023/10/24 05:56:20;;;;;;;;;9.33;8.33;;;;;13.42;94.11;100035.56;5035925;28;45360;-40
2023/10/24 05:58:45;;;;;;;;;9.67;8.33;;;;;13.42;94.32;100043.59;5017753;28;45450;-39
2023/10/24 06:01:11;;;;;;;;;8.33;6.00;;;;;13.44;94.21;100046.91;5035586;28;45420;-40
2023/10/24 06:03:37;;;;;;;;;8.00;8.00;;;;;13.43;94.43;100050.59;5037735;28;45286;-40
2023/10/24 06:06:02;;;;;;;;;8.67;7.67;;;;;13.46;94.03;100050.22;5021539;28;45354;-40
2023/10/24 06:08:28;;;;;;;;;8.67;6.67;;;;;13.48;94.14;100052.69;5039303;28;45760;-41
2023/10/24 06:11:11;;;;;;;;;7.00;6.50;;;;;13.48;94.11;100055.38;5039035;28;45384;-40
2023/10/24 06:13:38;;;;;;;;;11.00;7.33;;;;;13.52;93.66;100058.50;5038892;28;45517;-39
2023/10/24 06:16:14;;;;;;;;;8.67;8.67;;;;;13.50;93.58;100055.22;5021095;28;45443;-38
2023/10/24 06:18:40;;;;;;;;;5.33;5.33;;;;;13.54;93.33;100062.69;5038613;28;46906;-40
2023/10/24 06:21:06;;;;;;;;;8.33;7.67;;;;;13.50;93.52;100065.91;5038758;28;45877;-40
2023/10/24 06:23:33;;;;;;;;;8.33;7.67;;;;;13.53;92.91;100070.88;5038218;28;45407;-38
2023/10/24 06:25:59;;;;;;;;;9.67;7.33;;;;;13.52;93.51;100072.69;5038694;28;45535;-39
2023/10/24 06:28:24;;;;;;;;;7.00;5.33;;;;;13.53;93.54;100071.72;5038277;28;46311;-39
2023/10/24 06:30:57;;;;;;;;;8.00;8.00;;;;;13.54;92.70;100073.38;5038860;28;45367;-39
2023/10/24 06:33:23;;;;;;;;;6.33;6.00;;;;;13.54;92.71;100073.38;5038791;28;45340;-38
2023/10/24 06:35:48;;;;;;;;;5.00;5.00;;;;;13.56;92.45;100075.84;5038820;28;45308;-39
2023/10/24 06:38:13;;;;;;;;;8.00;7.00;;;;;13.58;92.07;100077.34;5020146;28;50397;-37
2023/10/24 06:40:38;;;;;;;;;8.33;6.67;;;;;13.60;91.93;100082.50;5038499;28;45388;-41
2023/10/24 06:43:05;;;;;;;;;7.67;7.00;;;;;13.58;91.40;100080.00;5038752;28;45445;-40
2023/10/24 06:45:31;;;;;;;;;7.00;5.00;;;;;13.45;90.99;100069.13;5038834;28;45248;-41
2023/10/24 06:47:57;;;;;;;;;7.33;5.33;;;;;13.53;90.63;100082.41;5038380;28;46276;-40
2023/10/24 06:50:22;;;;;;;;;7.00;7.00;;;;;13.51;90.19;100080.91;5037998;28;45385;-40
2023/10/24 06:52:47;;;;;;;;;7.00;4.33;;;;;13.47;90.13;100099.97;5038551;28;45381;-40
2023/10/24 06:55:13;;;;;;;;;10.67;6.33;;;;;13.43;89.82;100090.66;5038508;28;45508;-40
2023/10/24 06:57:38;;;;;;;;;5.00;5.00;;;;;13.40;90.21;100100.88;5038218;28;47124;-39
2023/10/24 07:00:05;;;;;;;;;7.00;7.00;;;;;13.34;90.10;100094.41;5038319;28;45427;-41
2023/10/24 07:02:33;;;;;;;;;9.33;7.67;;;;;13.36;90.16;100107.63;5038445;28;45254;-40
2023/10/24 07:04:59;;;;;;;;;7.33;6.33;;;;;13.32;89.88;100106.31;5038427;28;45524;-39
2023/10/24 07:07:25;;;;;;;;;8.00;6.00;;;;;13.27;90.11;100112.16;5037794;28;46978;-40
2023/10/24 07:09:50;;;;;;;;;5.33;5.33;;;;;13.30;90.24;100121.69;5038100;28;45471;-38
2023/10/24 07:12:16;;;;;;;;;8.00;5.00;;;;;13.29;90.21;100123.53;5037958;28;45221;-41
2023/10/24 07:14:41;;;;;;;;;9.00;5.00;;;;;13.32;89.50;100127.69;5037090;28;45447;-40
2023/10/24 07:17:06;;;;;;;;;7.67;4.00;;;;;13.32;89.42;100133.03;5038058;28;45316;-40
2023/10/24 07:19:32;;;;;;;;;6.67;6.00;;;;;13.37;88.85;100130.63;5020517;28;45332;-42
2023/10/24 07:21:57;;;;;;;;;5.33;5.33;;;;;13.36;88.46;100131.66;5038162;28;45419;-39
2023/10/24 07:24:22;;;;;;;;;4.00;4.00;;;;;13.35;88.07;100138.81;5038235;28;45379;-41
2023/10/24 07:26:48;;;;;;;;;7.00;5.00;;;;;13.35;88.21;100135.31;5020081;28;46039;-41
2023/10/24 07:29:13;;;;;;;;;4.00;4.00;;;;;13.31;88.46;100142.03;5037815;28;45447;-42
2023/10/24 07:31:38;;;;;;;;;4.00;4.00;;;;;13.30;88.49;100137.69;5038117;28;45700;-41
2023/10/24 07:34:04;;;;;;;;;6.33;4.00;;;;;13.28;88.40;100145.06;5038382;28;45305;-39
2023/10/24 07:36:31;;;;;;;;;8.00;5.00;;;;;13.28;87.97;100147.75;5038102;28;45499;-40
2023/10/24 07:39:00;;;;;;;;;8.67;3.33;;;;;13.28;87.83;100147.75;5038431;28;45476;-40
2023/10/24 07:41:25;;;;;;;;;4.67;4.00;;;;;13.25;87.57;100142.75;5037226;28;45362;-40
2023/10/24 07:43:51;;;;;;;;;7.00;5.00;;;;;13.22;87.33;100130.53;5038019;28;45486;-39
2023/10/24 07:46:17;;;;;;;;;9.00;7.33;;;;;13.26;87.03;100139.91;5037728;28;46004;-41
2023/10/24 07:48:43;;;;;;;;;10.00;6.67;;;;;13.27;86.48;100143.41;5037907;28;45492;-42
2023/10/24 07:51:10;;;;;;;;;4.00;4.00;;;;;13.28;86.79;100147.75;5038030;28;45452;-41
2023/10/24 07:53:36;;;;;;;;;6.67;4.00;;;;;13.29;85.97;100149.41;5038138;28;45354;-40
2023/10/24 07:56:05;;;;;;;;;3.00;3.00;;;;;13.29;86.08;100157.41;5037344;28;46127;-40
2023/10/24 07:58:30;;;;;;;;;5.00;5.00;;;;;13.31;85.56;100148.19;5036673;28;45243;-40
2023/10/24 08:00:56;;;;;;;;;6.33;4.00;;;;;13.30;85.47;100151.88;5037752;28;45427;-39
2023/10/24 08:03:21;;;;;;;;;3.00;3.00;;;;;13.28;85.27;100139.75;5037813;28;45500;-42
2023/10/24 08:05:46;;;;;;;;;4.00;4.00;;;;;13.32;85.36;100144.53;5036760;28;52750;-42
2023/10/24 08:08:12;;;;;;;;;8.00;2.00;;;;;13.36;84.47;100158.38;5037260;28;45309;-40
2023/10/24 08:10:37;;;;;;;;;2.00;2.00;;;;;13.37;84.41;100154.69;5037683;28;45325;-40
2023/10/24 08:13:03;;;;;;;;;6.00;3.67;;;;;13.39;84.14;100147.31;5037550;28;45503;-41
2023/10/24 08:15:28;;;;;;;;;5.00;5.00;;;;;13.40;83.94;100155.16;5037144;28;45808;-42
2023/10/24 08:17:54;;;;;;;;;5.00;3.33;;;;;13.43;83.24;100165.47;5037345;28;45404;-41
2023/10/24 08:20:20;;;;;;;;;3.00;3.00;;;;;13.46;83.32;100161.63;5037267;28;45426;-40
2023/10/24 08:22:46;;;;;;;;;6.00;3.33;;;;;13.49;82.23;100163.94;5037620;28;45423;-40
2023/10/24 08:25:11;;;;;;;;;2.00;2.00;;;;;13.52;82.46;100158.22;5018427;28;45539;-40
2023/10/24 08:27:37;;;;;;;;;6.00;4.00;;;;;13.55;81.89;100162.38;5037011;28;45464;-38
2023/10/24 08:30:06;;;;;;;;;5.00;3.00;;;;;13.59;81.88;100164.50;5037238;28;45433;-41
2023/10/24 08:32:32;;;;;;;;;2.00;2.00;;;;;13.62;81.71;100169.50;5037487;28;45525;-43
2023/10/24 08:34:57;;;;;;;;;3.00;3.00;;;;;13.69;81.33;100167.78;5037132;28;45460;-42
2023/10/24 08:37:23;;;;;;;;;4.33;3.00;;;;;13.75;80.88;100165.38;5036784;28;45316;-41
2023/10/24 08:39:49;;;;;;;;;3.00;1.00;;;;;13.79;80.71;100166.69;5036965;28;45506;-42
2023/10/24 08:42:15;;;;;;;;;2.00;2.00;;;;;13.86;79.75;100168.44;5036892;28;45307;-42
2023/10/24 08:44:41;;;;;;;;;1.33;1.33;;;;;13.96;79.07;100178.88;5036726;28;47049;-42
2023/10/24 08:47:07;;;;;;;;;2.00;2.00;;;;;14.07;79.29;100172.22;5036639;28;45450;-44
2023/10/24 08:49:36;;;;;;;;;2.67;1.67;;;;;14.16;78.28;100174.66;5036853;28;45412;-42
2023/10/24 08:52:01;;;;;;;;;2.00;2.00;;;;;14.31;77.70;100168.47;5036876;28;45500;-43
2023/10/24 08:54:26;;;;;;;;;3.00;3.00;;;;;14.48;76.91;100172.59;5036331;28;46278;-45
2023/10/24 08:56:53;;;;;;;;;2.00;2.00;;;;;14.72;76.18;100180.38;5036762;28;45359;-43
2023/10/24 08:59:20;;;;;;;;;1.00;1.00;;;;;15.78;73.65;100177.13;5036661;28;45411;-44
2023/10/24 09:01:47;;;;;;;;;2.67;2.00;;;;;17.56;67.83;100169.00;5036610;28;45376;-44
2023/10/24 09:04:13;;;;;;;;;2.33;1.67;;;;;19.20;62.93;100179.56;5036203;28;45423;-44
2023/10/24 09:06:38;;;;;;;;;2.00;2.00;;;;;21.07;57.14;100187.56;5036401;28;45305;-43
2023/10/24 09:09:04;;;;;;;;;0.00;0.00;;;;;21.70;54.94;100180.81;5036615;28;45319;-43
2023/10/24 09:12:04;;;;;;;;;2.00;2.00;;;;;22.33;54.66;100165.75;5036699;28;45210;-44
2023/10/24 09:14:29;;;;;;;;;2.25;2.25;;;;;23.43;49.70;100175.53;4987639;28;47258;-42
2023/10/24 09:16:58;;;;;;;;;2.25;2.25;;;;;24.33;47.18;100179.94;4994388;28;45430;-45
2023/10/24 09:19:24;;;;;;;;;1.40;1.40;;;;;25.04;46.13;100179.19;4994676;28;45638;-43
2023/10/24 09:21:50;;;;;;;;;4.00;3.00;;;;;25.26;44.66;100185.44;4994484;28;45485;-43
2023/10/24 09:24:16;;;;;;;;;6.00;6.00;;;;;24.91;43.66;100171.44;4994401;28;46139;-44
2023/10/24 09:26:55;;;;;;;;;1.00;1.00;;;;;24.26;46.38;100181.19;4994321;28;45321;-43
2023/10/24 09:29:24;;;;;;;;;0.80;0.80;;;;;23.96;46.15;100176.13;4994239;28;45500;-42
2023/10/24 09:31:51;;;;;;;;;3.20;1.60;;;;;23.88;47.53;100190.94;4994439;28;45581;-44
2023/10/24 09:34:17;;;;;;;;;6.20;4.20;;;;;23.80;48.01;100177.78;4993621;28;45438;-43
2023/10/24 09:36:44;;;;;;;;;4.00;2.00;;;;;23.83;46.36;100183.53;4993436;28;45422;-47
2023/10/24 09:39:11;;;;;;;;;1.80;1.40;;;;;23.96;47.31;100181.56;4994157;28;45449;-45
2023/10/24 09:41:38;;;;;;;;;4.00;2.00;;;;;24.25;45.53;100174.94;4994553;28;45559;-44
2023/10/24 09:44:04;;;;;;;;;5.40;2.60;;;;;24.76;45.10;100178.31;4993860;28;46097;-41
2023/10/24 09:46:31;;;;;;;;;1.40;1.00;;;;;25.62;43.23;100164.78;4993977;28;45397;-43
2023/10/24 09:48:58;;;;;;;;;0.00;0.00;;;;;26.60;43.20;100155.34;4995546;28;45366;-42
2023/10/24 09:51:24;;;;;;;;;2.60;0.80;;;;;27.49;40.46;100173.31;5036005;28;45409;-42
2023/10/24 09:53:50;;;;;;;;;2.25;1.00;;;;;27.97;38.40;100173.84;5035442;28;46314;-42
2023/10/24 09:56:16;;;;;;;;;1.00;1.00;;;;;28.12;36.98;100174.91;5035839;28;45440;-43
2023/10/24 09:58:43;;;;;;;;;6.80;5.60;;;;;28.65;37.44;100172.56;5035899;28;45490;-45
2023/10/24 10:01:09;;;;;;;;;6.00;2.80;;;;;29.00;35.54;100175.16;5036040;28;45438;-43
2023/10/24 10:03:36;;;;;;;;;0.00;0.00;;;;;28.82;36.41;100168.41;5035434;28;46298;-43
2023/10/24 10:06:05;;;;;;;;;1.00;1.00;;;;;28.66;36.12;100179.69;5035459;28;45336;-43
2023/10/24 10:08:35;;;;;;;;;0.80;0.80;;;;;29.21;35.44;100161.34;5035871;28;45370;-43
2023/10/24 10:11:01;;;;;;;;;2.20;1.20;;;;;29.91;35.18;100163.78;5018413;28;45423;-42
2023/10/24 10:13:30;;;;;;;;;0.20;0.20;;;;;30.31;33.15;100177.09;5035342;28;46353;-42
2023/10/24 10:16:06;;;;;;;;;1.80;1.00;;;;;29.68;33.68;100176.34;5035460;28;45439;-44
2023/10/24 10:18:48;;;;;;;;;2.00;0.80;;;;;29.45;34.43;100177.84;5035470;28;45469;-42
2023/10/24 10:21:34;;;;;;;;;1.60;0.80;;;;;30.20;32.97;100172.84;5035702;28;45477;-44
2023/10/24 10:24:18;;;;;;;;;1.20;0.80;;;;;30.86;31.92;100173.97;5035488;28;46539;-43
2023/10/24 10:27:08;;;;;;;;;1.60;1.60;;;;;30.87;31.76;100177.53;5035739;28;45431;-44
2023/10/24 10:30:01;;;;;;;;;1.00;1.00;;;;;30.00;35.44;100165.63;5035887;28;45265;-46
2023/10/24 10:32:52;;;;;;;;;2.20;0.40;;;;;28.52;36.05;100172.06;5035855;28;45372;-44
2023/10/24 10:35:18;;;;;;;;;1.20;1.20;;;;;27.68;35.89;100179.03;5035469;28;45328;-45
2023/10/24 10:38:01;;;;;;;;;0.00;0.00;;;;;28.46;35.40;100178.66;5035520;28;45486;-42
2023/10/24 10:40:29;;;;;;;;;1.40;1.40;;;;;29.46;33.84;100172.13;5035418;28;45254;-45
2023/10/24 10:42:55;;;;;;;;;2.60;1.20;;;;;29.95;31.77;100162.91;5035836;28;45373;-44
2023/10/24 10:45:30;;;;;;;;;4.50;2.50;;;;;30.05;32.40;100167.50;5034885;28;45792;-42
2023/10/24 10:48:06;;;;;;;;;4.00;3.00;;;;;29.37;34.28;100168.34;5035280;28;45353;-45
2023/10/24 10:50:33;;;;;;;;;7.60;5.80;;;;;28.91;34.11;100173.25;5020795;28;45432;-48
2023/10/24 10:53:23;;;;;;;;;3.00;2.00;;;;;28.57;34.65;100165.78;5039206;28;45217;-43
2023/10/24 10:55:57;;;;;;;;;2.00;1.00;;;;;28.27;35.58;100162.00;5038831;28;47258;-47
2023/10/24 10:58:28;;;;;;;;;2.20;1.00;;;;;27.47;35.82;100158.25;5038806;28;45467;-42
2023/10/24 11:01:28;;;;;;;;;1.00;1.00;;;;;27.30;37.09;100161.25;5038674;28;45368;-41
2023/10/24 11:03:58;;;;;;;;;2.60;1.40;;;;;27.10;36.02;100153.88;5037670;28;45757;-43
2023/10/24 11:06:28;;;;;;;;;1.00;1.00;;;;;26.99;35.83;100155.72;5038483;28;45679;-42
2023/10/24 11:09:10;;;;;;;;;3.60;2.00;;;;;26.93;36.83;100162.28;5038158;28;45605;-42
2023/10/24 11:11:37;;;;;;;;;1.60;1.60;;;;;26.45;37.20;100164.25;5038578;28;45352;-46
2023/10/24 11:14:21;;;;;;;;;1.00;1.00;;;;;25.73;37.98;100159.41;5038382;28;45428;-42
2023/10/24 11:16:48;;;;;;;;;2.00;0.00;;;;;25.63;38.71;100171.06;5038208;28;46348;-44
2023/10/24 11:19:24;;;;;;;;;2.00;0.80;;;;;25.56;39.23;100173.16;5038116;28;45441;-42